Time;durP1;ratioP1;P1;durP2;ratioP2;P2;SDS_P1;SDS_P2;PMS_P1;PMS_P2;Temp;Humidity;BMP_temperature;BMP_pressure;BME280_temperature;BME280_humidity;BME280_pressure;Samples;Min_cycle;Max_cycle;Signal;HPM_P1;HPM_P2
2022/06/11 00:00:26;;;;;;;18.55;13.52;;;;;;;;;;5027507;28;20037;-71
2022/06/11 00:02:52;;;;;;;15.80;12.95;;;;;;;;;;5027443;28;20421;-71
2022/06/11 00:05:20;;;;;;;20.35;14.32;;;;;;;;;;5027048;28;20056;-70
2022/06/11 00:07:46;;;;;;;19.77;13.77;;;;;;;;;;5027569;28;20057;-72
2022/06/11 00:10:12;;;;;;;21.65;14.02;;;;;;;;;;5027157;28;20052;-72
2022/06/11 00:12:38;;;;;;;17.40;15.57;;;;;;;;;;5009660;28;20055;-72
2022/06/11 00:15:04;;;;;;;29.13;21.17;;;;;;;;;;5027449;28;20041;-72
2022/06/11 00:17:30;;;;;;;30.42;19.40;;;;;;;;;;5027121;28;20048;-72
2022/06/11 00:19:56;;;;;;;32.92;24.25;;;;;;;;;;5027612;28;20044;-71
2022/06/11 00:22:22;;;;;;;44.42;29.00;;;;;;;;;;5009538;28;20049;-72
2022/06/11 00:24:48;;;;;;;14.50;13.05;;;;;;;;;;5027490;28;20045;-72
2022/06/11 00:27:14;;;;;;;19.33;14.05;;;;;;;;;;5025918;28;20053;-71
2022/06/11 00:29:40;;;;;;;34.65;18.50;;;;;;;;;;5027301;28;20041;-71
2022/06/11 00:32:07;;;;;;;14.85;13.10;;;;;;;;;;5027389;28;20049;-71
2022/06/11 00:34:33;;;;;;;15.18;13.27;;;;;;;;;;5009252;28;20442;-71
2022/06/11 00:36:58;;;;;;;17.30;13.65;;;;;;;;;;5027474;28;20115;-72
2022/06/11 00:39:26;;;;;;;16.48;13.90;;;;;;;;;;5027159;28;20666;-72
2022/06/11 00:41:52;;;;;;;15.60;13.95;;;;;;;;;;5027287;28;20107;-72
2022/06/11 00:44:18;;;;;;;16.15;13.02;;;;;;;;;;5027125;28;20042;-72
2022/06/11 00:46:48;;;;;;;13.85;12.55;;;;;;;;;;5009733;28;20431;-72
2022/06/11 00:49:19;;;;;;;18.83;16.60;;;;;;;;;;5009340;28;20044;-71
2022/06/11 00:51:45;;;;;;;15.75;13.98;;;;;;;;;;5031067;28;20474;-72
2022/06/11 00:54:13;;;;;;;24.08;15.23;;;;;;;;;;5012944;28;20045;-71
2022/06/11 00:56:41;;;;;;;18.60;14.65;;;;;;;;;;5013349;28;20482;-72
2022/06/11 00:59:09;;;;;;;14.57;12.68;;;;;;;;;;5030982;28;20410;-74
2022/06/11 01:01:35;;;;;;;16.50;13.80;;;;;;;;;;5030816;28;20041;-73
2022/06/11 01:04:01;;;;;;;14.88;13.32;;;;;;;;;;5030843;28;20069;-72
2022/06/11 01:06:37;;;;;;;19.15;13.90;;;;;;;;;;5030398;28;20042;-73
2022/06/11 01:09:03;;;;;;;20.25;13.68;;;;;;;;;;5012918;28;20068;-71
2022/06/11 01:11:30;;;;;;;19.48;14.32;;;;;;;;;;5030483;28;20183;-73
2022/06/11 01:14:02;;;;;;;19.58;14.10;;;;;;;;;;5030640;28;20059;-72
2022/06/11 01:16:33;;;;;;;21.15;14.35;;;;;;;;;;5030375;28;20072;-72
2022/06/11 01:19:15;;;;;;;17.58;13.77;;;;;;;;;;5012666;28;20074;-72
2022/06/11 01:21:44;;;;;;;22.02;13.63;;;;;;;;;;5012820;28;20100;-72
2022/06/11 01:24:23;;;;;;;20.40;14.32;;;;;;;;;;5030328;28;20045;-72
2022/06/11 01:27:07;;;;;;;20.77;14.70;;;;;;;;;;5012709;28;20111;-71
2022/06/11 01:29:33;;;;;;;19.95;15.48;;;;;;;;;;4979726;28;20950;-72
2022/06/11 01:32:01;;;;;;;23.95;16.08;;;;;;;;;;5029995;28;20049;-72
2022/06/11 01:34:48;;;;;;;21.88;13.77;;;;;;;;;;5012148;28;20056;-72
2022/06/11 01:37:16;;;;;;;20.55;12.48;;;;;;;;;;5012653;28;20113;-73
2022/06/11 01:40:02;;;;;;;18.65;12.48;;;;;;;;;;5029986;28;20052;-72
2022/06/11 01:42:28;;;;;;;15.48;11.15;;;;;;;;;;5015956;28;20049;-73
2022/06/11 01:45:03;;;;;;;15.10;11.57;;;;;;;;;;5030060;28;20048;-73
2022/06/11 01:47:31;;;;;;;18.80;10.60;;;;;;;;;;4995815;28;20040;-71
2022/06/11 01:49:57;;;;;;;16.73;11.82;;;;;;;;;;5012158;28;20478;-73
2022/06/11 01:52:42;;;;;;;17.95;11.57;;;;;;;;;;5029516;28;20722;-72
2022/06/11 01:55:08;;;;;;;14.55;11.45;;;;;;;;;;5029327;28;20536;-72
2022/06/11 01:57:35;;;;;;;13.82;11.77;;;;;;;;;;5011683;28;20033;-72
2022/06/11 02:00:00;;;;;;;18.38;12.13;;;;;;;;;;5029589;28;20537;-71
2022/06/11 02:02:35;;;;;;;16.08;12.07;;;;;;;;;;5010277;28;20049;-72
2022/06/11 02:05:16;;;;;;;15.55;11.70;;;;;;;;;;5029783;28;20049;-74
2022/06/11 02:08:03;;;;;;;18.90;10.93;;;;;;;;;;5011938;28;20514;-72
2022/06/11 02:10:52;;;;;;;18.20;12.73;;;;;;;;;;5011606;28;20460;-72
2022/06/11 02:13:21;;;;;;;13.70;12.38;;;;;;;;;;5018176;28;20540;-72
2022/06/11 02:15:53;;;;;;;14.93;12.00;;;;;;;;;;5011580;28;20138;-72
2022/06/11 02:18:19;;;;;;;14.43;12.25;;;;;;;;;;5028988;28;20456;-73
2022/06/11 02:20:48;;;;;;;19.88;11.73;;;;;;;;;;5011788;28;20044;-73
2022/06/11 02:23:22;;;;;;;15.68;12.55;;;;;;;;;;5029478;28;20541;-73
2022/06/11 02:25:50;;;;;;;15.77;12.50;;;;;;;;;;5011978;28;20099;-72
2022/06/11 02:28:17;;;;;;;22.00;12.98;;;;;;;;;;5029178;28;20095;-73
2022/06/11 02:30:43;;;;;;;24.42;11.85;;;;;;;;;;5032872;28;20033;-72
2022/06/11 02:33:10;;;;;;;19.48;11.30;;;;;;;;;;5036920;28;20058;-72
2022/06/11 02:35:36;;;;;;;17.38;11.43;;;;;;;;;;5014382;28;20132;-73
2022/06/11 02:38:04;;;;;;;14.15;11.05;;;;;;;;;;5029043;28;20041;-71
2022/06/11 02:40:31;;;;;;;16.67;11.20;;;;;;;;;;5029062;28;20124;-72
2022/06/11 02:42:57;;;;;;;16.90;11.48;;;;;;;;;;5011241;28;20045;-71
2022/06/11 02:45:23;;;;;;;16.80;9.95;;;;;;;;;;5028715;28;20056;-72
2022/06/11 02:47:49;;;;;;;12.00;10.75;;;;;;;;;;5029016;28;20037;-71
2022/06/11 02:50:17;;;;;;;18.55;10.70;;;;;;;;;;4994645;28;20041;-72
2022/06/11 02:52:43;;;;;;;14.68;10.77;;;;;;;;;;5011052;28;20049;-72
2022/06/11 02:55:09;;;;;;;11.43;10.32;;;;;;;;;;5023928;28;20529;-72
2022/06/11 02:57:35;;;;;;;19.45;11.48;;;;;;;;;;4991199;28;20049;-72
2022/06/11 03:00:01;;;;;;;13.40;11.65;;;;;;;;;;5007614;28;20091;-71
2022/06/11 03:02:29;;;;;;;17.60;14.15;;;;;;;;;;5007395;28;20050;-71
2022/06/11 03:04:55;;;;;;;20.15;15.88;;;;;;;;;;5008721;28;20038;-71
2022/06/11 03:07:20;;;;;;;26.10;15.73;;;;;;;;;;5007217;28;20046;-72
2022/06/11 03:09:46;;;;;;;25.55;15.45;;;;;;;;;;5008605;28;20038;-72
2022/06/11 03:12:12;;;;;;;19.17;15.05;;;;;;;;;;5008430;28;20073;-71
2022/06/11 03:14:38;;;;;;;19.65;14.52;;;;;;;;;;5008369;28;20057;-72
2022/06/11 03:17:04;;;;;;;16.27;14.25;;;;;;;;;;5007150;28;20042;-72
2022/06/11 03:19:29;;;;;;;20.63;13.68;;;;;;;;;;5008348;28;20049;-72
2022/06/11 03:21:56;;;;;;;18.33;14.32;;;;;;;;;;5008517;28;20133;-71
2022/06/11 03:24:22;;;;;;;20.35;13.85;;;;;;;;;;5006866;28;20044;-71
2022/06/11 03:26:48;;;;;;;18.27;13.63;;;;;;;;;;5007069;28;20104;-72
2022/06/11 03:29:15;;;;;;;13.65;11.93;;;;;;;;;;5008299;28;20506;-71
2022/06/11 03:31:42;;;;;;;23.65;12.93;;;;;;;;;;5007093;28;20473;-72
2022/06/11 03:34:07;;;;;;;17.67;9.73;;;;;;;;;;5006840;28;20054;-71
2022/06/11 03:36:34;;;;;;;14.63;9.60;;;;;;;;;;5008161;28;20461;-72
2022/06/11 03:39:00;;;;;;;14.07;12.40;;;;;;;;;;5008305;28;20065;-72
2022/06/11 03:41:26;;;;;;;14.10;11.30;;;;;;;;;;5006649;28;20076;-72
2022/06/11 03:43:51;;;;;;;22.90;12.98;;;;;;;;;;5008117;28;20601;-72
2022/06/11 03:46:17;;;;;;;14.82;12.45;;;;;;;;;;5008142;28;20042;-73
2022/06/11 03:48:43;;;;;;;13.68;11.75;;;;;;;;;;5007579;28;20053;-72
2022/06/11 03:51:09;;;;;;;20.80;11.50;;;;;;;;;;5006800;28;20133;-72
2022/06/11 03:53:36;;;;;;;17.25;12.20;;;;;;;;;;5008547;28;20132;-72
2022/06/11 03:56:01;;;;;;;17.33;11.65;;;;;;;;;;5027692;28;20053;-71
2022/06/11 03:58:28;;;;;;;12.93;10.65;;;;;;;;;;5027544;28;20052;-71
2022/06/11 04:03:38;;;;;;;14.98;11.95;;;;;;;;;;5027562;28;20041;-72
2022/06/11 04:06:04;;;;;;;15.52;11.27;;;;;;;;;;5027700;28;20046;-72
2022/06/11 04:08:30;;;;;;;13.43;10.77;;;;;;;;;;5027141;28;20041;-71
2022/06/11 04:10:59;;;;;;;16.88;12.07;;;;;;;;;;5010155;28;20045;-72
2022/06/11 04:13:25;;;;;;;17.60;12.25;;;;;;;;;;5026986;28;20060;-72
2022/06/11 04:15:51;;;;;;;13.27;11.70;;;;;;;;;;5027750;28;20049;-72
2022/06/11 04:18:20;;;;;;;15.68;12.15;;;;;;;;;;5027481;28;20056;-72
2022/06/11 04:20:46;;;;;;;16.60;11.27;;;;;;;;;;5009869;28;20033;-71
2022/06/11 04:23:12;;;;;;;14.70;11.60;;;;;;;;;;5027211;28;20119;-71
2022/06/11 04:25:38;;;;;;;15.13;11.60;;;;;;;;;;5029751;28;20510;-70
2022/06/11 04:28:03;;;;;;;20.92;11.68;;;;;;;;;;5031487;28;20505;-71
2022/06/11 04:30:29;;;;;;;13.80;10.63;;;;;;;;;;5031153;28;20041;-71
2022/06/11 04:32:55;;;;;;;15.20;10.52;;;;;;;;;;5031440;28;20054;-72
2022/06/11 04:35:21;;;;;;;17.15;10.35;;;;;;;;;;5013174;28;20409;-72
2022/06/11 04:37:47;;;;;;;18.95;9.38;;;;;;;;;;5031066;28;20052;-72
2022/06/11 04:40:15;;;;;;;10.55;8.93;;;;;;;;;;5013517;28;20037;-71
2022/06/11 04:42:41;;;;;;;17.40;9.50;;;;;;;;;;5013264;28;20383;-72
2022/06/11 04:45:07;;;;;;;15.57;9.45;;;;;;;;;;5031086;28;20128;-74
2022/06/11 04:47:33;;;;;;;17.73;8.75;;;;;;;;;;5030947;28;20041;-72
2022/06/11 04:49:59;;;;;;;17.48;9.30;;;;;;;;;;5031019;28;20100;-71
2022/06/11 04:52:25;;;;;;;10.38;8.38;;;;;;;;;;5013285;28;20052;-72
2022/06/11 04:54:51;;;;;;;8.82;7.93;;;;;;;;;;5030740;28;20063;-72
2022/06/11 04:57:17;;;;;;;11.80;8.45;;;;;;;;;;5030902;28;20042;-71
2022/06/11 04:59:43;;;;;;;14.02;9.10;;;;;;;;;;5013044;28;20084;-71
2022/06/11 05:02:09;;;;;;;15.32;8.82;;;;;;;;;;5012690;28;20030;-72
2022/06/11 05:04:35;;;;;;;11.65;8.77;;;;;;;;;;5030349;28;20124;-73
2022/06/11 05:07:01;;;;;;;9.70;8.55;;;;;;;;;;5012776;28;20292;-71
2022/06/11 05:09:28;;;;;;;12.00;8.45;;;;;;;;;;5030354;28;20049;-74
2022/06/11 05:11:54;;;;;;;12.98;7.60;;;;;;;;;;5030773;28;20099;-72
2022/06/11 05:14:20;;;;;;;10.27;7.50;;;;;;;;;;5030554;28;20144;-72
2022/06/11 05:16:47;;;;;;;11.77;8.40;;;;;;;;;;5012866;28;20128;-72
2022/06/11 05:19:13;;;;;;;14.13;8.25;;;;;;;;;;5031000;28;20049;-73
2022/06/11 05:21:39;;;;;;;13.10;7.80;;;;;;;;;;5030200;28;20044;-73
2022/06/11 05:24:05;;;;;;;16.17;7.95;;;;;;;;;;5032261;28;20509;-72
2022/06/11 05:26:39;;;;;;;9.15;7.72;;;;;;;;;;5032176;28;20052;-73
2022/06/11 05:29:05;;;;;;;10.35;7.65;;;;;;;;;;5013864;28;20037;-73
2022/06/11 05:31:31;;;;;;;8.10;7.30;;;;;;;;;;5030458;28;20102;-75
2022/06/11 05:33:57;;;;;;;8.82;7.55;;;;;;;;;;5012638;28;20049;-71
2022/06/11 05:36:23;;;;;;;10.80;7.55;;;;;;;;;;5029901;28;20069;-71
2022/06/11 05:38:49;;;;;;;15.93;11.32;;;;;;;;;;5012363;28;20262;-72
2022/06/11 05:41:15;;;;;;;10.25;7.03;;;;;;;;;;5030177;28;20044;-72
2022/06/11 05:43:41;;;;;;;7.63;6.32;;;;;;;;;;5029571;28;20046;-73
2022/06/11 05:46:07;;;;;;;6.03;5.53;;;;;;;;;;5029925;28;20056;-72
2022/06/11 05:48:34;;;;;;;9.00;6.18;;;;;;;;;;5029559;28;20037;-72
2022/06/11 05:51:00;;;;;;;13.88;5.75;;;;;;;;;;5012329;28;20179;-72
2022/06/11 05:53:27;;;;;;;7.53;5.80;;;;;;;;;;5029778;28;20144;-71
2022/06/11 05:55:53;;;;;;;6.20;4.60;;;;;;;;;;5011788;28;20053;-71
2022/06/11 05:58:29;;;;;;;5.10;4.70;;;;;;;;;;5011979;28;20539;-72
2022/06/11 06:00:55;;;;;;;5.13;4.60;;;;;;;;;;5029955;28;20092;-71
2022/06/11 06:03:21;;;;;;;8.45;5.45;;;;;;;;;;5011979;28;20056;-72
2022/06/11 06:05:47;;;;;;;7.63;5.20;;;;;;;;;;5011514;28;20046;-73
2022/06/11 06:08:13;;;;;;;5.60;4.90;;;;;;;;;;5029717;28;20501;-72
2022/06/11 06:10:39;;;;;;;7.88;4.88;;;;;;;;;;5029087;28;20898;-72
2022/06/11 06:13:45;;;;;;;5.55;5.05;;;;;;;;;;5029621;28;20049;-73
2022/06/11 06:15:51;;;;;;;7.30;4.70;;;;;;;;;;5029127;28;20142;-72
2022/06/11 06:18:18;;;;;;;9.20;4.80;;;;;;;;;;5029395;28;20497;-72
2022/06/11 06:20:44;;;;;;;6.13;5.00;;;;;;;;;;5029184;28;20041;-71
2022/06/11 06:23:09;;;;;;;4.90;4.40;;;;;;;;;;5011806;28;20215;-73
2022/06/11 06:25:35;;;;;;;5.15;4.78;;;;;;;;;;5028915;28;20117;-73
2022/06/11 06:28:01;;;;;;;10.25;5.10;;;;;;;;;;5011668;28;20591;-72
2022/06/11 06:30:28;;;;;;;8.80;5.20;;;;;;;;;;5028862;28;20049;-73
2022/06/11 06:32:53;;;;;;;6.65;4.45;;;;;;;;;;5028818;28;20046;-72
2022/06/11 06:35:19;;;;;;;6.43;4.50;;;;;;;;;;5028745;28;20107;-73
2022/06/11 06:37:45;;;;;;;4.63;4.32;;;;;;;;;;5010823;28;20088;-72
2022/06/11 06:40:11;;;;;;;6.55;5.00;;;;;;;;;;5010762;28;20064;-73
2022/06/11 06:42:37;;;;;;;10.90;5.00;;;;;;;;;;4994601;28;20122;-72
2022/06/11 06:45:03;;;;;;;6.80;5.10;;;;;;;;;;5028643;28;20480;-72
2022/06/11 06:47:29;;;;;;;7.15;4.93;;;;;;;;;;5010140;28;20046;-72
2022/06/11 06:49:55;;;;;;;11.90;4.82;;;;;;;;;;5028584;28;20060;-72
2022/06/11 06:52:21;;;;;;;5.65;4.60;;;;;;;;;;5028353;28;20053;-72
2022/06/11 06:54:47;;;;;;;6.40;5.10;;;;;;;;;;5027907;28;20503;-73
2022/06/11 06:57:13;;;;;;;6.00;5.50;;;;;;;;;;5028721;28;20120;-73
2022/06/11 06:59:39;;;;;;;7.75;5.00;;;;;;;;;;5028339;28;20129;-72
2022/06/11 07:02:06;;;;;;;5.75;5.10;;;;;;;;;;5028480;28;20513;-71
2022/06/11 07:04:32;;;;;;;8.50;4.93;;;;;;;;;;5028299;28;20049;-73
2022/06/11 07:06:58;;;;;;;5.68;5.05;;;;;;;;;;5028063;28;20037;-72
2022/06/11 07:09:24;;;;;;;7.65;5.10;;;;;;;;;;5010767;28;20587;-74
2022/06/11 07:11:49;;;;;;;6.53;4.75;;;;;;;;;;5010651;28;20525;-73
2022/06/11 07:14:15;;;;;;;8.65;4.63;;;;;;;;;;5028265;28;20593;-72
2022/06/11 07:16:46;;;;;;;7.35;5.07;;;;;;;;;;5027740;28;20120;-73
2022/06/11 07:19:13;;;;;;;5.38;4.90;;;;;;;;;;5028082;28;20049;-72
2022/06/11 07:21:40;;;;;;;8.95;4.75;;;;;;;;;;5027804;28;20037;-73
2022/06/11 07:24:16;;;;;;;8.85;4.95;;;;;;;;;;5028122;28;20076;-73
2022/06/11 07:26:43;;;;;;;9.98;5.20;;;;;;;;;;5027992;28;20139;-72
2022/06/11 07:29:13;;;;;;;5.75;4.80;;;;;;;;;;5028157;28;20136;-72
2022/06/11 07:31:39;;;;;;;11.20;4.60;;;;;;;;;;5027688;28;20033;-73
2022/06/11 07:34:05;;;;;;;12.13;4.15;;;;;;;;;;5027752;28;20064;-72
2022/06/11 07:36:31;;;;;;;9.35;4.35;;;;;;;;;;5027948;28;20484;-72
2022/06/11 07:38:57;;;;;;;6.88;3.97;;;;;;;;;;5009922;28;20052;-71
2022/06/11 07:41:22;;;;;;;7.07;4.30;;;;;;;;;;5009936;28;20038;-73
2022/06/11 07:43:49;;;;;;;10.23;4.22;;;;;;;;;;5009822;28;20510;-73
2022/06/11 07:46:15;;;;;;;4.53;4.13;;;;;;;;;;5027624;28;20179;-73
2022/06/11 07:48:41;;;;;;;4.22;3.70;;;;;;;;;;5010164;28;20136;-73
2022/06/11 07:51:06;;;;;;;11.45;4.25;;;;;;;;;;5028024;28;20037;-72
2022/06/11 07:53:33;;;;;;;7.05;3.60;;;;;;;;;;5027645;28;20568;-73
2022/06/11 07:55:59;;;;;;;9.10;4.95;;;;;;;;;;5027448;28;20053;-73
2022/06/11 07:58:26;;;;;;;7.18;4.35;;;;;;;;;;5027157;28;20541;-73
2022/06/11 08:00:53;;;;;;;11.10;4.15;;;;;;;;;;4992948;28;20631;-72
2022/06/11 08:03:19;;;;;;;4.00;3.60;;;;;;;;;;5009936;28;20049;-72
2022/06/11 08:05:45;;;;;;;10.23;3.20;;;;;;;;;;5027436;28;20084;-72
2022/06/11 08:08:11;;;;;;;4.50;3.13;;;;;;;;;;5010335;28;20041;-72
2022/06/11 08:10:38;;;;;;;3.50;3.20;;;;;;;;;;5010083;28;20395;-72
2022/06/11 08:13:04;;;;;;;5.55;3.25;;;;;;;;;;5027511;28;20053;-72
2022/06/11 08:15:30;;;;;;;5.15;3.30;;;;;;;;;;4993505;28;20452;-71
2022/06/11 08:17:55;;;;;;;6.93;3.20;;;;;;;;;;5009630;28;20136;-72
2022/06/11 08:20:22;;;;;;;5.15;3.30;;;;;;;;;;5010060;28;20037;-72
2022/06/11 08:22:48;;;;;;;6.70;3.03;;;;;;;;;;4994365;28;20045;-71
2022/06/11 08:25:15;;;;;;;5.45;3.08;;;;;;;;;;5012265;28;20112;-72
2022/06/11 08:27:41;;;;;;;5.93;3.15;;;;;;;;;;5030452;28;20083;-73
2022/06/11 08:30:07;;;;;;;14.38;3.30;;;;;;;;;;5027987;28;20080;-72
2022/06/11 08:32:33;;;;;;;3.60;3.30;;;;;;;;;;5009852;28;20474;-72
2022/06/11 08:34:58;;;;;;;5.25;3.30;;;;;;;;;;5027334;28;20076;-73
2022/06/11 08:37:25;;;;;;;9.32;3.25;;;;;;;;;;5027724;28;20117;-72
2022/06/11 08:39:50;;;;;;;5.22;3.45;;;;;;;;;;5027707;28;20045;-73
2022/06/11 08:42:28;;;;;;;8.45;3.22;;;;;;;;;;5027504;28;20517;-72
2022/06/11 08:44:55;;;;;;;5.60;3.40;;;;;;;;;;5027310;28;20045;-71
2022/06/11 08:47:23;;;;;;;11.68;3.22;;;;;;;;;;5027212;28;20721;-72
2022/06/11 08:49:49;;;;;;;8.57;3.75;;;;;;;;;;5026872;28;20106;-73
2022/06/11 08:52:17;;;;;;;5.38;3.30;;;;;;;;;;5009605;28;20037;-72
2022/06/11 08:54:43;;;;;;;6.30;3.28;;;;;;;;;;5008939;28;20104;-73
2022/06/11 08:57:19;;;;;;;4.55;3.50;;;;;;;;;;5027219;28;20148;-72
2022/06/11 09:00:05;;;;;;;9.75;4.43;;;;;;;;;;5026788;28;20065;-74
2022/06/11 09:02:40;;;;;;;8.40;3.85;;;;;;;;;;5009246;28;20145;-72
2022/06/11 09:05:12;;;;;;;8.07;3.33;;;;;;;;;;5027182;28;20416;-72
2022/06/11 09:07:42;;;;;;;15.57;3.88;;;;;;;;;;5027035;28;20508;-73
2022/06/11 09:10:27;;;;;;;8.43;3.80;;;;;;;;;;4993225;28;20038;-72
2022/06/11 09:13:11;;;;;;;6.88;3.30;;;;;;;;;;5030375;28;20624;-72
2022/06/11 09:15:43;;;;;;;9.10;3.22;;;;;;;;;;5030422;28;20046;-71
2022/06/11 09:18:15;;;;;;;5.55;3.38;;;;;;;;;;4996650;28;20128;-72
2022/06/11 09:20:47;;;;;;;14.45;4.03;;;;;;;;;;5030503;28;20130;-73
2022/06/11 09:23:20;;;;;;;5.88;3.97;;;;;;;;;;5030648;28;20111;-73
2022/06/11 09:25:58;;;;;;;3.92;3.55;;;;;;;;;;5030102;28;20052;-74
2022/06/11 09:28:27;;;;;;;4.20;3.90;;;;;;;;;;5012526;28;20052;-73
2022/06/11 09:30:59;;;;;;;3.90;3.65;;;;;;;;;;5030170;28;20052;-73
2022/06/11 09:33:29;;;;;;;3.60;3.30;;;;;;;;;;5012603;28;20526;-72
2022/06/11 09:36:01;;;;;;;7.38;3.38;;;;;;;;;;5012634;28;20042;-73
2022/06/11 09:38:36;;;;;;;12.60;4.00;;;;;;;;;;5012731;28;20052;-74
2022/06/11 09:41:05;;;;;;;9.20;3.60;;;;;;;;;;5012647;28;20124;-72
2022/06/11 09:43:34;;;;;;;3.70;3.40;;;;;;;;;;4996087;28;20045;-73
2022/06/11 09:46:00;;;;;;;5.65;3.33;;;;;;;;;;5029763;28;20094;-73
2022/06/11 09:48:38;;;;;;;4.47;3.42;;;;;;;;;;5029685;28;20136;-73
2022/06/11 09:51:23;;;;;;;3.90;3.58;;;;;;;;;;5029537;28;20041;-72
2022/06/11 09:53:49;;;;;;;4.03;3.08;;;;;;;;;;5011765;28;20073;-73
2022/06/11 09:56:22;;;;;;;6.57;3.15;;;;;;;;;;5029847;28;20053;-71
2022/06/11 09:59:01;;;;;;;6.80;4.00;;;;;;;;;;4995604;28;20045;-73
2022/06/11 10:01:31;;;;;;;8.25;3.60;;;;;;;;;;4995778;28;20129;-74
2022/06/11 10:04:07;;;;;;;11.88;4.07;;;;;;;;;;5029435;28;20041;-74
2022/06/11 10:06:36;;;;;;;11.15;4.13;;;;;;;;;;4995415;28;20048;-73
2022/06/11 10:09:03;;;;;;;4.43;4.03;;;;;;;;;;5029298;28;20037;-73
2022/06/11 10:11:44;;;;;;;5.28;3.78;;;;;;;;;;5011738;28;20399;-73
2022/06/11 10:14:29;;;;;;;6.15;4.40;;;;;;;;;;5011968;28;20525;-71
2022/06/11 10:17:01;;;;;;;7.32;3.85;;;;;;;;;;5029347;28;20049;-73
2022/06/11 10:19:46;;;;;;;5.88;3.83;;;;;;;;;;5029613;28;20061;-72
2022/06/11 10:22:16;;;;;;;4.45;4.10;;;;;;;;;;5028496;28;20183;-73
2022/06/11 10:24:48;;;;;;;6.22;4.30;;;;;;;;;;5029085;28;20044;-74
2022/06/11 10:27:14;;;;;;;9.73;4.55;;;;;;;;;;5011780;28;20060;-73
2022/06/11 10:29:41;;;;;;;6.95;4.28;;;;;;;;;;5029182;28;20409;-73
2022/06/11 10:32:11;;;;;;;4.20;3.85;;;;;;;;;;5029026;28;20445;-73
2022/06/11 10:34:39;;;;;;;7.10;4.00;;;;;;;;;;5028862;28;20060;-73
2022/06/11 10:37:07;;;;;;;5.22;3.72;;;;;;;;;;5011182;28;20041;-72
2022/06/11 10:39:45;;;;;;;5.38;3.80;;;;;;;;;;5011476;28;20553;-73
2022/06/11 10:42:11;;;;;;;8.23;4.18;;;;;;;;;;5011518;28;20075;-74
2022/06/11 10:44:41;;;;;;;6.65;4.30;;;;;;;;;;5011094;28;20060;-73
2022/06/11 10:47:07;;;;;;;;;;;;;;;;;;5029433;28;20061;-73
2022/06/11 10:49:33;;;;;;;6.85;4.65;;;;;;;;;;5028704;28;20300;-72
2022/06/11 10:52:03;;;;;;;9.65;4.43;;;;;;;;;;5028449;28;20065;-73
2022/06/11 10:54:29;;;;;;;6.18;4.93;;;;;;;;;;4994527;28;20502;-71
2022/06/11 10:57:04;;;;;;;10.90;5.18;;;;;;;;;;5028422;28;20037;-72
2022/06/11 10:59:34;;;;;;;7.13;5.45;;;;;;;;;;5028353;28;20115;-73
2022/06/11 11:02:09;;;;;;;7.82;4.70;;;;;;;;;;4994120;28;20596;-73
2022/06/11 11:04:38;;;;;;;6.55;5.47;;;;;;;;;;5028568;28;20037;-72
2022/06/11 11:07:08;;;;;;;9.65;5.68;;;;;;;;;;5028621;28;20088;-73
2022/06/11 11:09:34;;;;;;;9.48;4.28;;;;;;;;;;5028738;28;20059;-72
2022/06/11 11:12:01;;;;;;;7.43;4.38;;;;;;;;;;5010616;28;20041;-72
2022/06/11 11:14:35;;;;;;;4.90;4.50;;;;;;;;;;5010862;28;20418;-73
2022/06/11 11:17:02;;;;;;;5.00;4.43;;;;;;;;;;5028140;28;20116;-73
2022/06/11 11:19:28;;;;;;;12.00;5.50;;;;;;;;;;5028885;28;20056;-73
2022/06/11 11:21:54;;;;;;;4.40;4.00;;;;;;;;;;5013589;28;20040;-74
2022/06/11 11:24:24;;;;;;;5.88;4.38;;;;;;;;;;5033317;28;20061;-73
2022/06/11 11:26:50;;;;;;;4.35;3.85;;;;;;;;;;5014444;28;20121;-73
2022/06/11 11:29:18;;;;;;;6.88;4.30;;;;;;;;;;5028659;28;20040;-73
2022/06/11 11:31:48;;;;;;;9.70;4.93;;;;;;;;;;5028309;28;20115;-73
2022/06/11 11:34:33;;;;;;;5.22;3.80;;;;;;;;;;5010278;28;20053;-73
2022/06/11 11:37:19;;;;;;;5.78;5.20;;;;;;;;;;5027959;28;20049;-73
2022/06/11 11:39:56;;;;;;;10.43;5.22;;;;;;;;;;5027805;28;20513;-73
2022/06/11 11:42:22;;;;;;;8.27;5.28;;;;;;;;;;5010434;28;20073;-73
2022/06/11 11:44:51;;;;;;;5.90;5.30;;;;;;;;;;4993934;28;20045;-73
2022/06/11 11:47:26;;;;;;;4.30;4.00;;;;;;;;;;5027866;28;20521;-72
2022/06/11 11:49:56;;;;;;;9.32;3.97;;;;;;;;;;5027580;28;20053;-74
2022/06/11 11:52:23;;;;;;;4.40;4.10;;;;;;;;;;4993862;28;20080;-73
2022/06/11 11:54:59;;;;;;;9.13;4.63;;;;;;;;;;5027558;28;20073;-73
2022/06/11 11:57:30;;;;;;;7.97;5.30;;;;;;;;;;5010416;28;20103;-75
2022/06/11 11:59:57;;;;;;;5.18;4.68;;;;;;;;;;5010190;28;20052;-72
2022/06/11 12:02:24;;;;;;;6.60;4.13;;;;;;;;;;4994175;28;20037;-73
2022/06/11 12:05:09;;;;;;;9.20;5.25;;;;;;;;;;5010105;28;20095;-73
2022/06/11 12:07:36;;;;;;;5.10;4.70;;;;;;;;;;5010155;28;20064;-73
2022/06/11 12:10:29;;;;;;;9.85;4.80;;;;;;;;;;5027336;28;20041;-72
2022/06/11 12:12:55;;;;;;;5.07;4.65;;;;;;;;;;5009792;28;20065;-72
2022/06/11 12:15:21;;;;;;;5.22;4.15;;;;;;;;;;5027259;28;20517;-73
2022/06/11 12:17:49;;;;;;;4.95;3.80;;;;;;;;;;5027490;28;20049;-73
2022/06/11 12:20:27;;;;;;;5.43;4.90;;;;;;;;;;5027223;28;20088;-73
2022/06/11 12:22:54;;;;;;;6.78;4.13;;;;;;;;;;5027370;28;20065;-74
2022/06/11 12:25:22;;;;;;;4.40;3.83;;;;;;;;;;4993641;28;20048;-72
2022/06/11 12:27:48;;;;;;;4.78;4.40;;;;;;;;;;5010091;28;20037;-73
2022/06/11 12:30:23;;;;;;;4.63;4.18;;;;;;;;;;5009698;28;20216;-72
2022/06/11 12:32:49;;;;;;;9.65;4.40;;;;;;;;;;5009656;28;20057;-73
2022/06/11 12:35:16;;;;;;;10.77;4.80;;;;;;;;;;5027192;28;20049;-72
2022/06/11 12:37:47;;;;;;;6.03;4.70;;;;;;;;;;5027316;28;20472;-72
2022/06/11 12:40:21;;;;;;;5.05;4.65;;;;;;;;;;5009646;28;20096;-71
2022/06/11 12:42:50;;;;;;;5.10;4.75;;;;;;;;;;5027369;28;20072;-73
2022/06/11 12:45:19;;;;;;;7.43;5.50;;;;;;;;;;5027606;28;20521;-73
2022/06/11 12:48:03;;;;;;;4.97;4.47;;;;;;;;;;5031306;28;20041;-71
2022/06/11 12:50:50;;;;;;;5.78;4.22;;;;;;;;;;5030958;28;20653;-74
2022/06/11 12:53:25;;;;;;;5.97;5.25;;;;;;;;;;5030852;28;20061;-72
2022/06/11 12:55:54;;;;;;;5.85;5.30;;;;;;;;;;5013373;28;20168;-72
2022/06/11 12:58:39;;;;;;;5.57;5.18;;;;;;;;;;5031073;28;20041;-73
2022/06/11 13:01:34;;;;;;;11.25;6.10;;;;;;;;;;5012849;28;20045;-72
2022/06/11 13:04:17;;;;;;;6.57;5.47;;;;;;;;;;5009542;28;20041;-73
2022/06/11 13:06:49;;;;;;;5.85;5.35;;;;;;;;;;4996447;28;20081;-72
2022/06/11 13:09:18;;;;;;;8.68;5.30;;;;;;;;;;5030816;28;20553;-74
2022/06/11 13:11:50;;;;;;;7.05;4.25;;;;;;;;;;5030594;28;20049;-71
2022/06/11 13:14:16;;;;;;;7.78;5.47;;;;;;;;;;5030475;28;20049;-73
2022/06/11 13:17:06;;;;;;;6.80;4.28;;;;;;;;;;5030523;28;20516;-72
2022/06/11 13:19:32;;;;;;;;;;;;;;;;;;5013895;28;20076;-73
2022/06/11 13:22:16;;;;;;;6.88;5.45;;;;;;;;;;5013136;28;19956;-73
2022/06/11 13:24:46;;;;;;;6.65;5.18;;;;;;;;;;5030518;28;20042;-73
2022/06/11 13:27:15;;;;;;;10.25;5.30;;;;;;;;;;5030573;28;20478;-72
2022/06/11 13:29:59;;;;;;;6.72;5.20;;;;;;;;;;5030854;28;20053;-71
2022/06/11 13:32:31;;;;;;;4.57;4.18;;;;;;;;;;5012855;28;20417;-72
2022/06/11 13:35:09;;;;;;;6.07;5.07;;;;;;;;;;5030350;28;20122;-72
2022/06/11 13:37:54;;;;;;;5.28;4.72;;;;;;;;;;5012707;28;20037;-72
2022/06/11 13:40:38;;;;;;;6.75;4.82;;;;;;;;;;5030449;28;20536;-73
2022/06/11 13:43:12;;;;;;;8.75;4.28;;;;;;;;;;5031226;28;20111;-74
2022/06/11 13:45:57;;;;;;;9.18;4.70;;;;;;;;;;4997457;28;20042;-71
2022/06/11 13:48:27;;;;;;;5.10;4.40;;;;;;;;;;5031947;28;20095;-73
2022/06/11 13:51:08;;;;;;;6.32;4.93;;;;;;;;;;5031114;28;20056;-73
2022/06/11 13:56:22;;;;;;;5.15;4.55;;;;;;;;;;5016580;28;20517;-73
2022/06/11 13:58:54;;;;;;;6.03;5.10;;;;;;;;;;5013416;28;20039;-74
2022/06/11 14:01:29;;;;;;;4.63;4.20;;;;;;;;;;5013330;28;20049;-73
2022/06/11 14:04:27;;;;;;;5.05;4.65;;;;;;;;;;4995993;28;20423;-73
2022/06/11 14:06:54;;;;;;;4.90;4.40;;;;;;;;;;4975826;28;20044;-73
2022/06/11 14:12:06;;;;;;;7.70;5.13;;;;;;;;;;5029468;28;20199;-73
2022/06/11 14:14:33;;;;;;;7.93;6.15;;;;;;;;;;5029632;28;20118;-72
2022/06/11 14:16:59;;;;;;;5.90;5.35;;;;;;;;;;5011748;28;20038;-74
2022/06/11 14:19:26;;;;;;;6.95;5.70;;;;;;;;;;5012789;28;20394;-74
2022/06/11 14:21:53;;;;;;;9.40;6.18;;;;;;;;;;5016290;28;20041;-74
2022/06/11 14:24:38;;;;;;;5.97;5.38;;;;;;;;;;4999439;28;20050;-73
2022/06/11 14:27:12;;;;;;;6.30;5.60;;;;;;;;;;5029232;28;20049;-73
2022/06/11 14:29:38;;;;;;;6.00;5.47;;;;;;;;;;4995372;28;20052;-73
2022/06/11 14:32:24;;;;;;;5.90;5.43;;;;;;;;;;5028808;28;20449;-74
2022/06/11 14:35:00;;;;;;;10.50;5.78;;;;;;;;;;5029025;28;20065;-74
2022/06/11 14:37:27;;;;;;;9.50;5.82;;;;;;;;;;5011655;28;20144;-73
2022/06/11 14:40:13;;;;;;;6.88;5.30;;;;;;;;;;5011540;28;20393;-73
2022/06/11 14:43:11;;;;;;;6.43;5.38;;;;;;;;;;5011797;28;20057;-74
2022/06/11 14:45:38;;;;;;;12.73;4.57;;;;;;;;;;4974292;28;20160;-70
2022/06/11 14:48:24;;;;;;;9.75;5.05;;;;;;;;;;5028792;28;20049;-74
2022/06/11 14:51:05;;;;;;;5.65;5.25;;;;;;;;;;4978581;28;20048;-73
2022/06/11 14:53:33;;;;;;;5.85;4.70;;;;;;;;;;5028407;28;20076;-72
2022/06/11 14:56:02;;;;;;;6.97;5.13;;;;;;;;;;5028427;28;20053;-73